createdAt,value
2017-11-11T00:01:35.365Z,33.03
2017-11-11T00:04:02.984Z,30.03
2017-11-11T00:06:30.717Z,28.30
2017-11-11T00:08:58.460Z,27.60
2017-11-11T00:11:26.167Z,25.50
2017-11-11T00:13:53.850Z,28.93
2017-11-11T00:16:21.481Z,26.77
2017-11-11T00:18:49.090Z,28.83
2017-11-11T00:21:16.771Z,31.37
2017-11-11T00:23:44.409Z,29.20
2017-11-11T00:26:12.029Z,31.10
2017-11-11T00:28:39.752Z,34.30
2017-11-11T00:31:07.528Z,32.47
2017-11-11T00:33:35.344Z,32.60
2017-11-11T00:36:03.015Z,32.87
2017-11-11T00:38:30.653Z,32.67
2017-11-11T00:40:58.334Z,36.13
2017-11-11T00:43:26.053Z,35.60
2017-11-11T00:45:53.752Z,37.37
2017-11-11T00:48:21.477Z,35.87
2017-11-11T00:50:49.150Z,35.53
2017-11-11T00:53:16.777Z,33.40
2017-11-11T00:55:44.404Z,37.40
2017-11-11T00:58:12.086Z,35.20
2017-11-11T01:00:39.728Z,34.37
2017-11-11T01:03:07.398Z,32.77
2017-11-11T01:05:35.137Z,29.70
2017-11-11T01:08:03.603Z,27.63
2017-11-11T01:10:31.220Z,29.67
2017-11-11T01:12:58.981Z,27.57
2017-11-11T01:15:26.597Z,27.93
2017-11-11T01:17:54.272Z,30.50
2017-11-11T01:20:21.964Z,28.67
2017-11-11T01:22:49.588Z,28.23
2017-11-11T01:25:17.214Z,29.03
2017-11-11T01:27:44.963Z,28.07
2017-11-11T01:30:12.653Z,25.97
2017-11-11T01:32:40.297Z,26.77
2017-11-11T01:35:07.971Z,25.07
2017-11-11T01:37:35.590Z,29.20
2017-11-11T01:40:03.366Z,26.17
2017-11-11T01:42:31.093Z,27.10
2017-11-11T01:44:58.861Z,36.10
2017-11-11T01:47:26.730Z,39.30
2017-11-11T01:49:54.548Z,36.27
2017-11-11T01:52:22.293Z,40.50
2017-11-11T01:54:50.069Z,42.07
2017-11-11T01:57:17.826Z,41.50
2017-11-11T01:59:45.467Z,52.93
2017-11-11T02:02:13.115Z,56.00
2017-11-11T02:04:40.935Z,54.17
2017-11-11T02:07:09.004Z,50.97
2017-11-11T02:09:36.978Z,55.80
2017-11-11T02:12:04.763Z,51.10
2017-11-11T02:14:32.454Z,59.67
2017-11-11T02:17:00.083Z,41.20
2017-11-11T02:19:27.828Z,41.93
2017-11-11T02:21:55.521Z,38.90
2017-11-11T02:24:23.930Z,38.40
2017-11-11T02:26:51.666Z,41.57
2017-11-11T02:29:19.458Z,43.80
2017-11-11T02:31:47.104Z,42.97
2017-11-11T02:34:14.784Z,49.90
2017-11-11T02:36:42.460Z,46.07
2017-11-11T02:39:10.151Z,46.03
2017-11-11T02:41:37.848Z,48.57
2017-11-11T02:44:05.493Z,48.20
2017-11-11T02:46:33.207Z,48.67
2017-11-11T02:49:00.885Z,47.27
2017-11-11T02:51:28.537Z,50.23
2017-11-11T02:53:56.222Z,61.67
2017-11-11T02:56:23.976Z,37.60
2017-11-11T02:58:51.605Z,37.63
2017-11-11T03:01:19.249Z,40.70
2017-11-11T03:03:47.000Z,33.10
2017-11-11T03:06:14.635Z,28.70
2017-11-11T03:08:42.423Z,29.80
2017-11-11T03:11:10.152Z,31.47
2017-11-11T03:13:37.773Z,33.10
2017-11-11T03:16:05.520Z,40.87
2017-11-11T03:18:33.489Z,37.00
2017-11-11T03:21:01.164Z,38.70
2017-11-11T03:23:28.861Z,45.97
2017-11-11T03:25:56.721Z,51.97
2017-11-11T03:28:24.605Z,65.60
2017-11-11T03:30:52.331Z,43.53
2017-11-11T03:33:20.132Z,49.97
2017-11-11T03:35:48.892Z,40.97
2017-11-11T03:38:16.893Z,39.17
2017-11-11T03:40:44.548Z,40.40
2017-11-11T03:43:12.232Z,45.10
2017-11-11T03:45:39.913Z,43.97
2017-11-11T03:48:07.796Z,45.60
2017-11-11T03:50:35.513Z,63.27
2017-11-11T03:53:03.196Z,58.60
2017-11-11T03:55:30.931Z,76.77
2017-11-11T03:57:58.610Z,81.07
2017-11-11T04:00:26.297Z,78.53
2017-11-11T04:02:54.028Z,70.40
2017-11-11T04:05:21.681Z,65.97
2017-11-11T04:07:49.617Z,73.57
2017-11-11T04:10:17.413Z,64.93
2017-11-11T04:12:45.043Z,61.97
2017-11-11T04:15:12.704Z,57.73
2017-11-11T04:17:40.417Z,59.40
2017-11-11T04:20:08.185Z,86.73
2017-11-11T04:22:35.805Z,107.13
2017-11-11T04:25:03.544Z,118.63
2017-11-11T04:27:31.278Z,105.60
2017-11-11T04:29:58.986Z,95.07
2017-11-11T04:32:26.774Z,121.30
2017-11-11T04:34:54.475Z,116.30
2017-11-11T04:37:22.093Z,85.30
2017-11-11T04:39:49.832Z,86.50
2017-11-11T04:42:17.516Z,77.00
2017-11-11T04:44:45.354Z,85.17
2017-11-11T04:47:13.077Z,77.63
2017-11-11T04:49:40.744Z,86.57
2017-11-11T04:52:08.527Z,86.47
2017-11-11T04:54:36.245Z,92.20
2017-11-11T04:57:03.986Z,95.80
2017-11-11T04:59:31.996Z,67.73
2017-11-11T05:01:59.724Z,58.60
2017-11-11T05:04:27.505Z,59.17
2017-11-11T05:06:55.222Z,166.37
2017-11-11T05:09:22.977Z,82.57
2017-11-11T05:11:50.757Z,82.77
2017-11-11T05:14:19.332Z,69.80
2017-11-11T05:16:47.136Z,68.60
2017-11-11T05:19:14.909Z,62.63
2017-11-11T05:21:42.633Z,64.80
2017-11-11T05:24:10.452Z,74.43
2017-11-11T05:26:38.129Z,77.50
2017-11-11T05:29:05.977Z,80.00
2017-11-11T05:31:33.665Z,95.30
2017-11-11T05:34:01.399Z,74.27
2017-11-11T05:36:29.143Z,71.40
2017-11-11T05:38:56.828Z,60.57
2017-11-11T05:41:24.509Z,62.40
2017-11-11T05:43:52.212Z,56.80
2017-11-11T05:46:20.037Z,54.57
2017-11-11T05:48:47.658Z,51.40
2017-11-11T05:51:15.284Z,66.67
2017-11-11T05:53:43.021Z,59.43
2017-11-11T05:56:10.769Z,60.87
2017-11-11T05:58:38.544Z,63.40
2017-11-11T06:01:06.220Z,62.40
2017-11-11T06:03:33.856Z,63.80
2017-11-11T06:06:01.494Z,63.47
2017-11-11T06:08:29.164Z,65.50
2017-11-11T06:10:56.790Z,74.43
2017-11-11T06:13:24.477Z,65.10
2017-11-11T06:15:52.267Z,59.80
2017-11-11T06:18:20.005Z,75.97
2017-11-11T06:20:47.712Z,55.03
2017-11-11T06:23:15.511Z,51.80
2017-11-11T06:25:43.161Z,56.10
2017-11-11T06:28:10.789Z,50.40
2017-11-11T06:30:38.465Z,48.10
2017-11-11T06:33:06.139Z,45.70
2017-11-11T06:35:34.576Z,37.57
2017-11-11T06:38:02.381Z,26.40
2017-11-11T06:40:30.196Z,35.83
2017-11-11T06:42:59.223Z,27.77
2017-11-11T06:45:26.887Z,24.80
2017-11-11T06:47:54.505Z,23.93
2017-11-11T06:50:22.197Z,21.60
2017-11-11T06:52:50.068Z,19.43
2017-11-11T06:55:17.856Z,20.20
2017-11-11T06:57:45.473Z,21.77
2017-11-11T07:00:13.228Z,24.20
2017-11-11T07:02:40.956Z,23.03
2017-11-11T07:05:08.616Z,28.07
2017-11-11T07:07:36.346Z,19.80
2017-11-11T07:10:04.780Z,17.13
2017-11-11T07:12:32.532Z,18.47
2017-11-11T07:15:00.516Z,20.93
2017-11-11T07:17:28.168Z,18.27
2017-11-11T07:19:56.580Z,19.90
2017-11-11T07:22:25.163Z,18.33
2017-11-11T07:24:52.857Z,19.83
2017-11-11T07:27:20.484Z,26.17
2017-11-11T07:29:48.254Z,27.70
2017-11-11T07:32:16.101Z,27.00
2017-11-11T07:34:43.749Z,28.40
2017-11-11T07:37:11.436Z,29.27
2017-11-11T07:39:39.114Z,30.17
2017-11-11T07:42:06.737Z,28.77
2017-11-11T07:44:34.475Z,26.07
2017-11-11T07:47:02.308Z,31.40
2017-11-11T07:49:29.928Z,30.73
2017-11-11T07:51:57.632Z,37.17
2017-11-11T07:54:25.247Z,35.03
2017-11-11T07:56:52.941Z,35.70
2017-11-11T07:59:20.788Z,37.07
2017-11-11T08:01:48.517Z,37.50
2017-11-11T08:04:16.228Z,35.90
2017-11-11T08:06:43.912Z,42.10
2017-11-11T08:09:11.657Z,36.70
2017-11-11T08:11:39.357Z,35.63
2017-11-11T08:14:07.096Z,33.17
2017-11-11T08:16:34.817Z,34.97
2017-11-11T08:19:02.526Z,35.50
2017-11-11T08:21:30.265Z,35.47
2017-11-11T08:23:57.946Z,32.63
2017-11-11T08:26:25.652Z,34.67
2017-11-11T08:28:53.468Z,35.47
2017-11-11T08:31:21.184Z,36.17
2017-11-11T08:33:48.926Z,35.80
2017-11-11T08:36:16.612Z,36.10
2017-11-11T08:38:44.384Z,31.97
2017-11-11T08:41:12.068Z,34.67
2017-11-11T08:43:39.765Z,32.80
2017-11-11T08:46:07.465Z,30.67
2017-11-11T08:48:35.125Z,30.93
2017-11-11T08:51:04.108Z,32.37
2017-11-11T08:53:31.738Z,26.60
2017-11-11T08:55:59.466Z,27.53
2017-11-11T08:58:27.200Z,27.10
2017-11-11T09:00:54.896Z,26.60
2017-11-11T09:03:22.588Z,26.73
2017-11-11T09:05:50.336Z,26.67
2017-11-11T09:08:18.032Z,26.73
2017-11-11T09:10:45.648Z,26.53
2017-11-11T09:13:13.388Z,27.50
2017-11-11T09:15:41.179Z,33.30
2017-11-11T09:18:08.900Z,28.40
2017-11-11T09:20:36.641Z,29.60
2017-11-11T09:23:04.470Z,30.10
2017-11-11T09:25:32.109Z,31.87
2017-11-11T09:27:59.802Z,33.00
2017-11-11T09:30:27.432Z,34.50
2017-11-11T09:32:55.064Z,35.43
2017-11-11T09:35:22.838Z,34.23
2017-11-11T09:37:50.563Z,33.37
2017-11-11T09:40:18.279Z,30.70
2017-11-11T09:42:45.956Z,46.53
2017-11-11T09:45:13.653Z,30.60
2017-11-11T09:47:41.387Z,36.07
2017-11-11T09:50:09.125Z,38.00
2017-11-11T09:52:36.769Z,42.77
2017-11-11T09:55:04.494Z,41.20
2017-11-11T09:57:32.188Z,38.57
2017-11-11T09:59:59.876Z,37.63
2017-11-11T10:02:27.492Z,42.97
2017-11-11T10:04:55.244Z,46.37
2017-11-11T10:07:22.867Z,51.97
2017-11-11T10:09:50.606Z,56.37
2017-11-11T10:12:18.292Z,55.20
2017-11-11T10:14:45.979Z,58.17
2017-11-11T10:17:14.559Z,48.30
2017-11-11T10:19:42.374Z,50.57
2017-11-11T10:22:10.061Z,55.30
2017-11-11T10:24:37.721Z,50.60
2017-11-11T10:27:05.496Z,46.27
2017-11-11T10:29:33.129Z,48.50
2017-11-11T10:32:00.812Z,55.07
2017-11-11T10:34:28.501Z,49.73
2017-11-11T10:36:56.122Z,48.83
2017-11-11T10:39:23.749Z,42.50
2017-11-11T10:41:51.424Z,45.63
2017-11-11T10:44:19.092Z,46.27
2017-11-11T10:46:46.794Z,58.90
2017-11-11T10:49:14.492Z,59.83
2017-11-11T10:51:42.157Z,55.30
2017-11-11T10:54:09.805Z,59.23
2017-11-11T10:56:37.507Z,42.40
2017-11-11T10:59:05.128Z,43.37
2017-11-11T11:01:32.778Z,46.33
2017-11-11T11:04:00.491Z,50.23
2017-11-11T11:06:28.132Z,43.80
2017-11-11T11:08:55.758Z,48.70
2017-11-11T11:11:23.548Z,40.93
2017-11-11T11:13:51.184Z,63.33
2017-11-11T11:16:18.817Z,45.47
2017-11-11T11:18:46.546Z,44.20
2017-11-11T11:21:14.182Z,37.77
2017-11-11T11:23:41.922Z,34.77
2017-11-11T11:26:09.708Z,35.70
2017-11-11T11:28:37.393Z,32.73
2017-11-11T11:31:05.033Z,34.00
2017-11-11T11:33:32.780Z,30.20
2017-11-11T11:36:00.464Z,30.10
2017-11-11T11:38:28.144Z,31.77
2017-11-11T11:40:55.845Z,37.77
2017-11-11T11:43:23.476Z,32.93
2017-11-11T11:45:51.134Z,24.97
2017-11-11T11:48:18.840Z,26.60
2017-11-11T11:50:46.465Z,23.60
2017-11-11T11:53:14.093Z,22.07
2017-11-11T11:55:41.856Z,23.27
2017-11-11T11:58:09.602Z,23.70
2017-11-11T12:00:37.304Z,31.37
2017-11-11T12:03:05.001Z,32.67
2017-11-11T12:05:32.668Z,34.87
2017-11-11T12:08:00.325Z,34.17
2017-11-11T12:10:28.093Z,35.53
2017-11-11T12:12:55.720Z,34.73
2017-11-11T12:15:23.348Z,37.70
2017-11-11T12:17:51.084Z,39.20
2017-11-11T12:20:18.716Z,39.17
2017-11-11T12:22:46.348Z,37.17
2017-11-11T12:25:14.149Z,33.30
2017-11-11T12:27:41.795Z,32.63
2017-11-11T12:30:09.464Z,31.27
2017-11-11T12:32:37.229Z,32.33
2017-11-11T12:35:04.965Z,32.20
2017-11-11T12:37:32.762Z,33.47
2017-11-11T12:40:00.443Z,36.07
2017-11-11T12:42:28.124Z,34.73
2017-11-11T12:44:55.748Z,35.67
2017-11-11T12:47:23.438Z,35.37
2017-11-11T12:49:51.138Z,33.73
2017-11-11T12:52:18.817Z,33.03
2017-11-11T12:54:46.646Z,27.93
2017-11-11T12:57:14.340Z,32.40
2017-11-11T12:59:42.053Z,34.80
2017-11-11T13:02:09.729Z,32.67
2017-11-11T13:04:37.373Z,30.70
2017-11-11T13:07:05.022Z,29.33
2017-11-11T13:09:32.696Z,29.50
2017-11-11T13:12:00.361Z,29.87
2017-11-11T13:14:28.043Z,29.90
2017-11-11T13:16:55.835Z,27.10
2017-11-11T13:19:23.517Z,29.60
2017-11-11T13:21:51.195Z,30.30
2017-11-11T13:24:18.885Z,28.80
2017-11-11T13:26:46.544Z,28.23
2017-11-11T13:29:14.248Z,27.07
2017-11-11T13:31:42.150Z,25.50
2017-11-11T13:34:09.893Z,24.60
2017-11-11T13:36:37.597Z,24.50
2017-11-11T13:39:05.349Z,25.20
2017-11-11T13:41:32.980Z,28.40
2017-11-11T13:44:00.761Z,27.93
2017-11-11T13:46:28.550Z,27.80
2017-11-11T13:48:56.184Z,28.40
2017-11-11T13:51:23.983Z,30.87
2017-11-11T13:53:51.689Z,28.20
2017-11-11T13:56:19.400Z,30.30
2017-11-11T13:58:47.228Z,29.37
2017-11-11T14:01:15.008Z,35.37
2017-11-11T14:03:42.773Z,35.00
2017-11-11T14:06:10.393Z,33.50
2017-11-11T14:08:38.146Z,37.23
2017-11-11T14:11:05.805Z,39.57
2017-11-11T14:13:33.564Z,42.27
2017-11-11T14:16:01.280Z,40.90
2017-11-11T14:18:28.980Z,45.13
2017-11-11T14:20:56.653Z,42.97
2017-11-11T14:23:24.360Z,46.87
2017-11-11T14:25:52.092Z,46.50
2017-11-11T14:28:19.745Z,44.13
2017-11-11T14:30:47.465Z,41.70
2017-11-11T14:33:15.101Z,40.60
2017-11-11T14:35:42.861Z,39.67
2017-11-11T14:38:10.564Z,48.57
2017-11-11T14:40:38.309Z,56.80
2017-11-11T14:43:06.025Z,58.07
2017-11-11T14:45:33.809Z,73.23
2017-11-11T14:48:01.448Z,70.85
2017-11-11T14:50:29.197Z,74.40
2017-11-11T14:52:56.953Z,71.00
2017-11-11T14:55:24.640Z,88.77
2017-11-11T14:57:52.377Z,86.87
2017-11-11T15:00:20.077Z,87.43
2017-11-11T15:02:47.765Z,98.67
2017-11-11T15:05:15.425Z,102.53
2017-11-11T15:07:43.141Z,116.37
2017-11-11T15:10:10.825Z,111.33
2017-11-11T15:12:38.576Z,109.87
2017-11-11T15:15:06.325Z,112.50
2017-11-11T15:17:33.983Z,107.20
2017-11-11T15:20:01.643Z,101.57
2017-11-11T15:22:29.433Z,108.37
2017-11-11T15:24:57.129Z,106.57
2017-11-11T15:27:24.809Z,103.90
2017-11-11T15:29:52.520Z,99.03
2017-11-11T15:32:20.165Z,100.30
2017-11-11T15:34:47.797Z,103.57
2017-11-11T15:37:15.502Z,101.37
2017-11-11T15:39:43.138Z,104.70
2017-11-11T15:42:10.829Z,98.63
2017-11-11T15:44:38.613Z,96.90
2017-11-11T15:47:06.329Z,98.73
2017-11-11T15:49:34.008Z,94.97
2017-11-11T15:52:01.919Z,95.90
2017-11-11T15:54:29.728Z,95.10
2017-11-11T15:56:57.412Z,93.67
2017-11-11T15:59:25.154Z,83.80
2017-11-11T16:01:52.792Z,75.90
2017-11-11T16:04:20.452Z,69.13
2017-11-11T16:06:48.148Z,77.27
2017-11-11T16:09:15.798Z,73.10
2017-11-11T16:11:43.448Z,65.47
2017-11-11T16:14:11.230Z,69.60
2017-11-11T16:16:38.981Z,66.70
2017-11-11T16:19:06.665Z,76.97
2017-11-11T16:21:34.341Z,92.75
2017-11-11T16:24:02.124Z,97.63
2017-11-11T16:26:29.804Z,95.33
2017-11-11T16:28:57.943Z,99.73
2017-11-11T16:31:25.636Z,88.80
2017-11-11T16:33:53.266Z,86.73
2017-11-11T16:36:21.110Z,91.07
2017-11-11T16:38:48.773Z,102.27
2017-11-11T16:41:16.609Z,78.97
2017-11-11T16:43:44.404Z,86.70
2017-11-11T16:46:12.290Z,79.20
2017-11-11T16:48:39.985Z,81.20
2017-11-11T16:51:07.675Z,84.80
2017-11-11T16:53:35.425Z,96.80
2017-11-11T16:56:03.062Z,85.07
2017-11-11T16:58:30.850Z,77.23
2017-11-11T17:00:58.577Z,74.00
2017-11-11T17:03:26.200Z,69.67
2017-11-11T17:05:53.979Z,72.17
2017-11-11T17:08:21.605Z,83.03
2017-11-11T17:10:49.248Z,81.80
2017-11-11T17:13:16.984Z,77.67
2017-11-11T17:15:44.640Z,73.57
2017-11-11T17:18:12.455Z,82.17
2017-11-11T17:20:40.188Z,130.77
2017-11-11T17:23:07.818Z,119.57
2017-11-11T17:25:35.512Z,115.07
2017-11-11T17:28:03.198Z,90.97
2017-11-11T17:30:30.830Z,78.63
2017-11-11T17:32:58.464Z,85.40
2017-11-11T17:35:26.203Z,91.53
2017-11-11T17:37:53.909Z,117.77
2017-11-11T17:40:21.573Z,137.70
2017-11-11T17:42:49.259Z,215.27
2017-11-11T17:45:16.965Z,136.43
2017-11-11T17:47:44.674Z,107.37
2017-11-11T17:50:12.409Z,111.47
2017-11-11T17:52:40.101Z,96.17
2017-11-11T17:55:07.789Z,81.13
2017-11-11T17:57:35.545Z,76.07
2017-11-11T18:00:03.238Z,68.57
2017-11-11T18:02:30.940Z,71.73
2017-11-11T18:04:58.772Z,67.10
2017-11-11T18:07:26.416Z,76.87
2017-11-11T18:09:54.109Z,80.33
2017-11-11T18:12:21.800Z,67.10
2017-11-11T18:14:49.452Z,59.57
2017-11-11T18:17:17.093Z,56.53
2017-11-11T18:19:44.874Z,60.13
2017-11-11T18:22:12.520Z,57.57
2017-11-11T18:24:40.233Z,73.50
2017-11-11T18:27:07.940Z,80.03
2017-11-11T18:29:35.627Z,74.37
2017-11-11T18:32:03.309Z,68.20
2017-11-11T18:34:31.062Z,78.40
2017-11-11T18:36:58.744Z,72.90
2017-11-11T18:39:26.431Z,67.50
2017-11-11T18:41:54.113Z,67.67
2017-11-11T18:44:21.744Z,61.50
2017-11-11T18:46:49.417Z,66.30
2017-11-11T18:49:17.269Z,66.10
2017-11-11T18:51:44.925Z,66.27
2017-11-11T18:54:12.748Z,71.77
2017-11-11T18:56:40.436Z,82.50
2017-11-11T18:59:08.179Z,87.93
2017-11-11T19:01:35.951Z,84.47
2017-11-11T19:04:03.794Z,73.07
2017-11-11T19:06:31.433Z,66.27
2017-11-11T19:08:59.077Z,63.40
2017-11-11T19:11:26.844Z,75.10
2017-11-11T19:13:54.504Z,99.13
2017-11-11T19:16:22.233Z,100.93
2017-11-11T19:18:49.908Z,87.57
2017-11-11T19:21:17.621Z,70.20
2017-11-11T19:23:45.244Z,65.00
2017-11-11T19:26:12.954Z,61.43
2017-11-11T19:28:40.730Z,65.53
2017-11-11T19:31:08.370Z,62.93
2017-11-11T19:33:37.043Z,59.43
2017-11-11T19:36:04.766Z,62.87
2017-11-11T19:38:32.469Z,59.50
2017-11-11T19:41:00.165Z,64.77
2017-11-11T19:43:27.892Z,66.30
2017-11-11T19:45:55.576Z,61.97
2017-11-11T19:48:23.249Z,64.80
2017-11-11T19:50:50.898Z,57.37
2017-11-11T19:53:18.526Z,54.00
2017-11-11T19:55:46.218Z,52.23
2017-11-11T19:58:13.845Z,56.17
2017-11-11T20:00:41.481Z,64.50
2017-11-11T20:03:09.164Z,56.10
2017-11-11T20:05:36.786Z,45.93
2017-11-11T20:08:04.428Z,48.50
2017-11-11T20:10:32.153Z,48.70
2017-11-11T20:12:59.853Z,43.10
2017-11-11T20:15:27.533Z,50.07
2017-11-11T20:17:55.226Z,52.40
2017-11-11T20:20:22.846Z,49.47
2017-11-11T20:22:50.571Z,47.60
2017-11-11T20:25:18.317Z,53.60
2017-11-11T20:27:46.048Z,48.47
2017-11-11T20:30:13.789Z,53.97
2017-11-11T20:32:41.529Z,58.13
2017-11-11T20:35:09.296Z,57.83
2017-11-11T20:37:36.929Z,50.10
2017-11-11T20:40:04.649Z,49.07
2017-11-11T20:42:32.284Z,50.70
2017-11-11T20:44:59.975Z,51.57
2017-11-11T20:47:27.660Z,50.50
2017-11-11T20:49:55.338Z,32.70
2017-11-11T20:52:23.002Z,30.03
2017-11-11T20:54:50.680Z,36.07
2017-11-11T20:57:18.317Z,37.47
2017-11-11T20:59:46.003Z,43.43
2017-11-11T21:02:13.701Z,46.63
2017-11-11T21:04:41.328Z,45.50
2017-11-11T21:07:09.003Z,40.73
2017-11-11T21:09:37.507Z,43.03
2017-11-11T21:12:05.201Z,46.30
2017-11-11T21:14:32.822Z,44.73
2017-11-11T21:17:00.576Z,38.70
2017-11-11T21:19:28.312Z,36.83
2017-11-11T21:21:56.877Z,40.07
2017-11-11T21:24:24.860Z,40.00
2017-11-11T21:26:52.528Z,35.17
2017-11-11T21:29:20.242Z,38.10
2017-11-11T21:31:48.057Z,41.97
2017-11-11T21:34:15.743Z,38.30
2017-11-11T21:36:43.365Z,37.30
2017-11-11T21:39:11.140Z,40.40
2017-11-11T21:41:38.904Z,30.57
2017-11-11T21:44:06.525Z,23.90
2017-11-11T21:46:34.219Z,25.73
2017-11-11T21:49:01.832Z,20.20
2017-11-11T21:51:29.448Z,25.83
2017-11-11T21:53:57.125Z,20.80
2017-11-11T21:56:24.743Z,18.90
2017-11-11T21:58:52.354Z,18.20
2017-11-11T22:01:20.065Z,17.87
2017-11-11T22:03:47.761Z,20.50
2017-11-11T22:06:15.526Z,17.70
2017-11-11T22:08:43.292Z,16.30
2017-11-11T22:11:10.955Z,15.67
2017-11-11T22:13:38.567Z,15.60
2017-11-11T22:16:06.228Z,13.87
2017-11-11T22:18:33.838Z,14.80
2017-11-11T22:21:01.511Z,13.83
2017-11-11T22:23:29.281Z,14.53
2017-11-11T22:25:56.936Z,14.87
2017-11-11T22:28:24.701Z,14.70
2017-11-11T22:30:52.466Z,15.20
2017-11-11T22:33:20.169Z,17.10
2017-11-11T22:35:47.796Z,15.87
2017-11-11T22:38:15.574Z,15.20
2017-11-11T22:40:43.198Z,13.27
2017-11-11T22:43:10.813Z,12.70
2017-11-11T22:45:38.540Z,11.43
2017-11-11T22:48:06.180Z,11.60
2017-11-11T22:50:33.845Z,11.93
2017-11-11T22:53:01.598Z,14.57
2017-11-11T22:55:29.300Z,13.30
2017-11-11T22:57:57.133Z,14.37
2017-11-11T23:00:41.517Z,15.63
2017-11-11T23:03:09.190Z,14.80
2017-11-11T23:05:36.857Z,14.60
2017-11-11T23:08:04.668Z,13.93
2017-11-11T23:10:32.385Z,14.63
2017-11-11T23:12:59.993Z,20.50
2017-11-11T23:15:27.664Z,19.13
2017-11-11T23:17:55.276Z,20.57
2017-11-11T23:20:22.932Z,19.40
2017-11-11T23:22:50.765Z,19.57
2017-11-11T23:25:18.382Z,19.43
2017-11-11T23:27:46.055Z,18.13
2017-11-11T23:30:13.728Z,13.87
2017-11-11T23:32:41.360Z,14.83
2017-11-11T23:35:09.016Z,15.60
2017-11-11T23:37:36.677Z,16.20
2017-11-11T23:40:04.369Z,16.23
2017-11-11T23:42:32.053Z,15.10
2017-11-11T23:44:59.813Z,15.17
2017-11-11T23:47:27.493Z,14.20
2017-11-11T23:49:55.201Z,13.40
2017-11-11T23:52:22.877Z,14.30
2017-11-11T23:54:50.573Z,15.50
2017-11-11T23:57:18.280Z,14.73
2017-11-11T23:59:45.949Z,16.93
